sensor_id;sensor_type;location;lat;lon;timestamp;pressure;altitude;pressure_sealevel;temperature;humidity
52535;BME280;38443;53.164;5.802;2023-01-19T00:01:17;99760.88;;;1.08;100.00
52535;BME280;38443;53.164;5.802;2023-01-19T00:03:43;99771.41;;;1.10;100.00
52535;BME280;38443;53.164;5.802;2023-01-19T00:06:08;99767.91;;;1.09;100.00
52535;BME280;38443;53.164;5.802;2023-01-19T00:08:34;99767.91;;;1.12;100.00
52535;BME280;38443;53.164;5.802;2023-01-19T00:11:00;99766.13;;;1.13;100.00
52535;BME280;38443;53.164;5.802;2023-01-19T00:13:26;99767.84;;;1.15;100.00
52535;BME280;38443;53.164;5.802;2023-01-19T00:15:51;99767.91;;;1.12;100.00
52535;BME280;38443;53.164;5.802;2023-01-19T00:18:17;99767.91;;;1.11;100.00
52535;BME280;38443;53.164;5.802;2023-01-19T00:20:44;99768.78;;;1.10;100.00
52535;BME280;38443;53.164;5.802;2023-01-19T00:23:10;99776.69;;;1.08;100.00
52535;BME280;38443;53.164;5.802;2023-01-19T00:25:36;99782.81;;;1.12;100.00
52535;BME280;38443;53.164;5.802;2023-01-19T00:28:07;99783.69;;;1.14;100.00
52535;BME280;38443;53.164;5.802;2023-01-19T00:30:33;99786.31;;;1.17;100.00
52535;BME280;38443;53.164;5.802;2023-01-19T00:32:58;99781.03;;;1.18;100.00
52535;BME280;38443;53.164;5.802;2023-01-19T00:35:23;99779.22;;;1.22;100.00
52535;BME280;38443;53.164;5.802;2023-01-19T00:37:49;99781.84;;;1.25;100.00
52535;BME280;38443;53.164;5.802;2023-01-19T00:40:14;99770.38;;;1.29;100.00
52535;BME280;38443;53.164;5.802;2023-01-19T00:42:40;99775.63;;;1.32;100.00
52535;BME280;38443;53.164;5.802;2023-01-19T00:45:11;99780.00;;;1.32;100.00
52535;BME280;38443;53.164;5.802;2023-01-19T00:47:37;99781.78;;;1.31;100.00
52535;BME280;38443;53.164;5.802;2023-01-19T00:50:04;99782.69;;;1.27;100.00
52535;BME280;38443;53.164;5.802;2023-01-19T00:52:30;99794.97;;;1.28;100.00
52535;BME280;38443;53.164;5.802;2023-01-19T00:54:55;99791.47;;;1.32;100.00
52535;BME280;38443;53.164;5.802;2023-01-19T00:57:20;99796.69;;;1.35;100.00
52535;BME280;38443;53.164;5.802;2023-01-19T00:59:46;99789.63;;;1.36;100.00
52535;BME280;38443;53.164;5.802;2023-01-19T01:02:11;99793.19;;;1.36;100.00
52535;BME280;38443;53.164;5.802;2023-01-19T01:04:37;99794.03;;;1.37;100.00
52535;BME280;38443;53.164;5.802;2023-01-19T01:07:02;99794.91;;;1.39;100.00
52535;BME280;38443;53.164;5.802;2023-01-19T01:09:28;99795.75;;;1.41;100.00
52535;BME280;38443;53.164;5.802;2023-01-19T01:11:54;99800.16;;;1.41;100.00
52535;BME280;38443;53.164;5.802;2023-01-19T01:14:19;99798.41;;;1.41;100.00
52535;BME280;38443;53.164;5.802;2023-01-19T01:16:44;99796.69;;;1.37;100.00
52535;BME280;38443;53.164;5.802;2023-01-19T01:19:10;99788.72;;;1.40;100.00
52535;BME280;38443;53.164;5.802;2023-01-19T01:21:35;99799.31;;;1.38;100.00
52535;BME280;38443;53.164;5.802;2023-01-19T01:24:02;99800.19;;;1.36;100.00
52535;BME280;38443;53.164;5.802;2023-01-19T01:26:27;99795.78;;;1.38;100.00
52535;BME280;38443;53.164;5.802;2023-01-19T01:28:52;99806.31;;;1.38;100.00
52535;BME280;38443;53.164;5.802;2023-01-19T01:31:18;99809.81;;;1.42;100.00
52535;BME280;38443;53.164;5.802;2023-01-19T01:33:43;99809.81;;;1.42;100.00
52535;BME280;38443;53.164;5.802;2023-01-19T01:36:09;99811.56;;;1.43;100.00
52535;BME280;38443;53.164;5.802;2023-01-19T01:38:35;99804.53;;;1.43;100.00
52535;BME280;38443;53.164;5.802;2023-01-19T01:41:00;99824.72;;;1.46;100.00
52535;BME280;38443;53.164;5.802;2023-01-19T01:43:46;99820.28;;;1.48;100.00
52535;BME280;38443;53.164;5.802;2023-01-19T01:46:13;99826.44;;;1.50;100.00
52535;BME280;38443;53.164;5.802;2023-01-19T01:48:41;99814.97;;;1.52;100.00
52535;BME280;38443;53.164;5.802;2023-01-19T01:51:14;99824.66;;;1.53;100.00
52535;BME280;38443;53.164;5.802;2023-01-19T01:54:18;99818.50;;;1.53;100.00
52535;BME280;38443;53.164;5.802;2023-01-19T01:56:47;99824.72;;;1.47;100.00
52535;BME280;38443;53.164;5.802;2023-01-19T02:02:26;99837.03;;;1.45;100.00
52535;BME280;38443;53.164;5.802;2023-01-19T02:05:19;99830.03;;;1.43;100.00
52535;BME280;38443;53.164;5.802;2023-01-19T02:10:48;99824.81;;;1.36;100.00
52535;BME280;38443;53.164;5.802;2023-01-19T02:13:36;99823.97;;;1.31;100.00
52535;BME280;38443;53.164;5.802;2023-01-19T02:16:06;99830.09;;;1.30;100.00
52535;BME280;38443;53.164;5.802;2023-01-19T02:18:33;99829.28;;;1.27;100.00
52535;BME280;38443;53.164;5.802;2023-01-19T02:23:53;99830.19;;;1.18;100.00
52535;BME280;38443;53.164;5.802;2023-01-19T02:26:22;99826.69;;;1.16;100.00
52535;BME280;38443;53.164;5.802;2023-01-19T02:28:51;99831.09;;;1.17;100.00
52535;BME280;38443;53.164;5.802;2023-01-19T02:31:18;99830.19;;;1.18;100.00
52535;BME280;38443;53.164;5.802;2023-01-19T02:33:43;99836.34;;;1.20;100.00
52535;BME280;38443;53.164;5.802;2023-01-19T02:36:10;99840.72;;;1.23;100.00
52535;BME280;38443;53.164;5.802;2023-01-19T02:38:38;99843.28;;;1.33;100.00
52535;BME280;38443;53.164;5.802;2023-01-19T02:41:06;99842.25;;;1.54;100.00
52535;BME280;38443;53.164;5.802;2023-01-19T02:43:33;99847.41;;;1.65;100.00
52535;BME280;38443;53.164;5.802;2023-01-19T02:45:59;99849.06;;;1.74;100.00
52535;BME280;38443;53.164;5.802;2023-01-19T02:48:24;99851.63;;;1.85;100.00
52535;BME280;38443;53.164;5.802;2023-01-19T02:50:53;99862.13;;;1.91;100.00
52535;BME280;38443;53.164;5.802;2023-01-19T02:56:33;99861.16;;;1.96;100.00
52535;BME280;38443;53.164;5.802;2023-01-19T03:07:32;99864.78;;;1.86;100.00
52535;BME280;38443;53.164;5.802;2023-01-19T03:10:21;99865.69;;;1.84;100.00
52535;BME280;38443;53.164;5.802;2023-01-19T03:13:06;99863.03;;;1.87;100.00
52535;BME280;38443;53.164;5.802;2023-01-19T03:15:48;99850.69;;;1.89;100.00
52535;BME280;38443;53.164;5.802;2023-01-19T03:18:18;99852.44;;;1.88;100.00
52535;BME280;38443;53.164;5.802;2023-01-19T03:20:44;99852.44;;;1.88;100.00
52535;BME280;38443;53.164;5.802;2023-01-19T03:23:12;99856.84;;;1.88;100.00
52535;BME280;38443;53.164;5.802;2023-01-19T03:25:42;99855.13;;;1.87;100.00
52535;BME280;38443;53.164;5.802;2023-01-19T03:28:10;99862.97;;;1.93;100.00
52535;BME280;38443;53.164;5.802;2023-01-19T03:30:46;99855.00;;;1.99;100.00
52535;BME280;38443;53.164;5.802;2023-01-19T03:33:22;99869.03;;;2.01;100.00
52535;BME280;38443;53.164;5.802;2023-01-19T03:35:55;99865.50;;;2.02;100.00
52535;BME280;38443;53.164;5.802;2023-01-19T03:38:24;99869.91;;;2.02;100.00
52535;BME280;38443;53.164;5.802;2023-01-19T03:40:55;99869.91;;;2.00;100.00
52535;BME280;38443;53.164;5.802;2023-01-19T03:43:23;99875.19;;;2.00;100.00
52535;BME280;38443;53.164;5.802;2023-01-19T03:45:51;99875.19;;;2.00;100.00
52535;BME280;38443;53.164;5.802;2023-01-19T03:48:19;99872.53;;;2.03;100.00
52535;BME280;38443;53.164;5.802;2023-01-19T03:50:45;99881.31;;;2.07;100.00
52535;BME280;38443;53.164;5.802;2023-01-19T03:53:12;99889.16;;;2.13;100.00
52535;BME280;38443;53.164;5.802;2023-01-19T03:55:40;99896.13;;;2.18;100.00
52535;BME280;38443;53.164;5.802;2023-01-19T03:58:06;99907.50;;;2.25;100.00
52535;BME280;38443;53.164;5.802;2023-01-19T04:00:32;99914.50;;;2.28;100.00
52535;BME280;38443;53.164;5.802;2023-01-19T04:02:57;99915.38;;;2.31;100.00
52535;BME280;38443;53.164;5.802;2023-01-19T04:05:23;99928.56;;;2.30;100.00
52535;BME280;38443;53.164;5.802;2023-01-19T04:07:52;99930.28;;;2.32;100.00
52535;BME280;38443;53.164;5.802;2023-01-19T04:10:18;99930.28;;;2.32;100.00
52535;BME280;38443;53.164;5.802;2023-01-19T04:12:44;99948.81;;;2.31;100.00
52535;BME280;38443;53.164;5.802;2023-01-19T04:15:10;99951.41;;;2.32;100.00
52535;BME280;38443;53.164;5.802;2023-01-19T04:17:36;99958.47;;;2.33;100.00
52535;BME280;38443;53.164;5.802;2023-01-19T04:20:02;99953.19;;;2.35;100.00
52535;BME280;38443;53.164;5.802;2023-01-19T04:22:27;99967.25;;;2.37;100.00
52535;BME280;38443;53.164;5.802;2023-01-19T04:24:53;99964.59;;;2.37;100.00
52535;BME280;38443;53.164;5.802;2023-01-19T04:27:19;99978.69;;;2.36;100.00
52535;BME280;38443;53.164;5.802;2023-01-19T04:29:45;99987.53;;;2.32;100.00
52535;BME280;38443;53.164;5.802;2023-01-19T04:32:12;99984.88;;;2.30;100.00
52535;BME280;38443;53.164;5.802;2023-01-19T04:34:38;99981.44;;;2.25;100.00
52535;BME280;38443;53.164;5.802;2023-01-19T04:37:03;99977.09;;;2.19;100.00
52535;BME280;38443;53.164;5.802;2023-01-19T04:39:28;99977.09;;;2.19;100.00
52535;BME280;38443;53.164;5.802;2023-01-19T04:41:54;99983.28;;;2.17;100.00
52535;BME280;38443;53.164;5.802;2023-01-19T04:44:21;99989.47;;;2.13;100.00
52535;BME280;38443;53.164;5.802;2023-01-19T04:46:47;99985.97;;;2.09;100.00
52535;BME280;38443;53.164;5.802;2023-01-19T04:49:12;99995.72;;;2.03;100.00
52535;BME280;38443;53.164;5.802;2023-01-19T04:51:38;99993.94;;;2.03;100.00
52535;BME280;38443;53.164;5.802;2023-01-19T04:54:03;100000.16;;;1.96;100.00
52535;BME280;38443;53.164;5.802;2023-01-19T04:56:28;100010.69;;;1.96;100.00
52535;BME280;38443;53.164;5.802;2023-01-19T04:58:53;100006.34;;;1.92;100.00
52535;BME280;38443;53.164;5.802;2023-01-19T05:01:19;100009.88;;;1.89;100.00
52535;BME280;38443;53.164;5.802;2023-01-19T05:03:45;100013.41;;;1.88;100.00
52535;BME280;38443;53.164;5.802;2023-01-19T05:06:10;100015.16;;;1.89;100.00
52535;BME280;38443;53.164;5.802;2023-01-19T05:08:35;100028.34;;;1.88;100.00
52535;BME280;38443;53.164;5.802;2023-01-19T05:11:01;100042.47;;;1.87;100.00
52535;BME280;38443;53.164;5.802;2023-01-19T05:13:26;100036.31;;;1.83;100.00
52535;BME280;38443;53.164;5.802;2023-01-19T05:15:52;100045.13;;;1.79;100.00
52535;BME280;38443;53.164;5.802;2023-01-19T05:18:17;100044.31;;;1.71;100.00
52535;BME280;38443;53.164;5.802;2023-01-19T05:20:43;100054.00;;;1.67;100.00
52535;BME280;38443;53.164;5.802;2023-01-19T05:23:11;100058.41;;;1.65;100.00
52535;BME280;38443;53.164;5.802;2023-01-19T05:25:36;100051.41;;;1.63;100.00
52535;BME280;38443;53.164;5.802;2023-01-19T05:28:02;100050.53;;;1.59;100.00
52535;BME280;38443;53.164;5.802;2023-01-19T05:30:27;100067.22;;;1.63;100.00
52535;BME280;38443;53.164;5.802;2023-01-19T05:32:53;100070.69;;;1.69;100.00
52535;BME280;38443;53.164;5.802;2023-01-19T05:35:18;100070.66;;;1.75;100.00
52535;BME280;38443;53.164;5.802;2023-01-19T05:37:43;100078.53;;;1.85;100.00
52535;BME280;38443;53.164;5.802;2023-01-19T05:40:09;100074.94;;;1.93;100.00
52535;BME280;38443;53.164;5.802;2023-01-19T05:42:35;100063.47;;;1.96;100.00
52535;BME280;38443;53.164;5.802;2023-01-19T05:45:00;100076.69;;;1.97;100.00
52535;BME280;38443;53.164;5.802;2023-01-19T05:47:27;100074.03;;;1.97;100.00
52535;BME280;38443;53.164;5.802;2023-01-19T05:49:53;100073.16;;;1.98;100.00
52535;BME280;38443;53.164;5.802;2023-01-19T05:52:19;100074.03;;;1.96;100.00
52535;BME280;38443;53.164;5.802;2023-01-19T05:54:44;100074.91;;;1.98;100.00
52535;BME280;38443;53.164;5.802;2023-01-19T05:57:09;100081.94;;;2.01;100.00
52535;BME280;38443;53.164;5.802;2023-01-19T05:59:35;100089.84;;;2.02;100.00
52535;BME280;38443;53.164;5.802;2023-01-19T06:02:01;100102.97;;;2.11;100.00
52535;BME280;38443;53.164;5.802;2023-01-19T06:04:27;100102.94;;;2.21;100.00
52535;BME280;38443;53.164;5.802;2023-01-19T06:06:52;100090.53;;;2.29;100.00
52535;BME280;38443;53.164;5.802;2023-01-19T06:09:18;100107.25;;;2.29;100.00
52535;BME280;38443;53.164;5.802;2023-01-19T06:11:44;100117.81;;;2.28;100.00
52535;BME280;38443;53.164;5.802;2023-01-19T06:14:10;100119.63;;;2.19;100.00
52535;BME280;38443;53.164;5.802;2023-01-19T06:16:35;100109.22;;;2.03;100.00
52535;BME280;38443;53.164;5.802;2023-01-19T06:19:01;100102.19;;;1.94;100.00
52535;BME280;38443;53.164;5.802;2023-01-19T06:21:26;100112.78;;;1.89;100.00
52535;BME280;38443;53.164;5.802;2023-01-19T06:23:52;100112.78;;;1.89;100.00
52535;BME280;38443;53.164;5.802;2023-01-19T06:26:17;100120.72;;;1.88;100.00
52535;BME280;38443;53.164;5.802;2023-01-19T06:28:42;100127.75;;;1.89;100.00
52535;BME280;38443;53.164;5.802;2023-01-19T06:31:08;100126.03;;;1.85;100.00
52535;BME280;38443;53.164;5.802;2023-01-19T06:33:33;100135.72;;;1.83;100.00
52535;BME280;38443;53.164;5.802;2023-01-19T06:35:58;100130.47;;;1.76;100.00
52535;BME280;38443;53.164;5.802;2023-01-19T06:38:24;100138.38;;;1.75;100.00
52535;BME280;38443;53.164;5.802;2023-01-19T06:40:55;100133.13;;;1.69;100.00
52535;BME280;38443;53.164;5.802;2023-01-19T06:43:27;100148.09;;;1.65;100.00
52535;BME280;38443;53.164;5.802;2023-01-19T06:45:53;100149.84;;;1.60;100.00
52535;BME280;38443;53.164;5.802;2023-01-19T06:48:20;100157.78;;;1.57;100.00
52535;BME280;38443;53.164;5.802;2023-01-19T06:50:47;100159.56;;;1.53;100.00
52535;BME280;38443;53.164;5.802;2023-01-19T06:53:13;100157.78;;;1.52;100.00
52535;BME280;38443;53.164;5.802;2023-01-19T06:55:41;100162.19;;;1.52;100.00
52535;BME280;38443;53.164;5.802;2023-01-19T06:58:07;100166.59;;;1.53;100.00
52535;BME280;38443;53.164;5.802;2023-01-19T07:00:32;100169.22;;;1.56;100.00
52535;BME280;38443;53.164;5.802;2023-01-19T07:02:58;100176.22;;;1.66;100.00
52535;BME280;38443;53.164;5.802;2023-01-19T07:05:23;100180.59;;;1.75;100.00
52535;BME280;38443;53.164;5.802;2023-01-19T07:07:53;100187.56;;;1.85;100.00
52535;BME280;38443;53.164;5.802;2023-01-19T07:10:19;100192.81;;;1.93;100.00
52535;BME280;38443;53.164;5.802;2023-01-19T07:12:44;100195.44;;;1.96;100.00
52535;BME280;38443;53.164;5.802;2023-01-19T07:15:11;100199.81;;;2.00;100.00
52535;BME280;38443;53.164;5.802;2023-01-19T07:17:37;100206.91;;;1.95;100.00
52535;BME280;38443;53.164;5.802;2023-01-19T07:20:03;100212.16;;;1.93;100.00
52535;BME280;38443;53.164;5.802;2023-01-19T07:22:28;100213.94;;;1.88;100.00
52535;BME280;38443;53.164;5.802;2023-01-19T07:24:53;100217.50;;;1.81;100.00
52535;BME280;38443;53.164;5.802;2023-01-19T07:27:19;100231.56;;;1.72;100.00
52535;BME280;38443;53.164;5.802;2023-01-19T07:29:44;100233.38;;;1.69;100.00
52535;BME280;38443;53.164;5.802;2023-01-19T07:32:10;100236.91;;;1.65;100.00
52535;BME280;38443;53.164;5.802;2023-01-19T07:34:35;100246.59;;;1.63;100.00
52535;BME280;38443;53.164;5.802;2023-01-19T07:37:01;100256.25;;;1.64;100.00
52535;BME280;38443;53.164;5.802;2023-01-19T07:39:27;100256.25;;;1.65;100.00
52535;BME280;38443;53.164;5.802;2023-01-19T07:41:54;100253.59;;;1.64;100.00
52535;BME280;38443;53.164;5.802;2023-01-19T07:44:20;100258.91;;;1.61;100.00
52535;BME280;38443;53.164;5.802;2023-01-19T07:46:45;100264.19;;;1.61;100.00
52535;BME280;38443;53.164;5.802;2023-01-19T07:49:11;100267.69;;;1.61;100.00
52535;BME280;38443;53.164;5.802;2023-01-19T07:51:36;100274.69;;;1.64;100.00
52535;BME280;38443;53.164;5.802;2023-01-19T07:54:02;100272.06;;;1.64;100.00
52535;BME280;38443;53.164;5.802;2023-01-19T07:56:27;100281.75;;;1.65;100.00
52535;BME280;38443;53.164;5.802;2023-01-19T07:58:55;100279.09;;;1.60;100.00
52535;BME280;38443;53.164;5.802;2023-01-19T08:01:20;100287.03;;;1.58;100.00
52535;BME280;38443;53.164;5.802;2023-01-19T08:03:49;100287.91;;;1.56;100.00
52535;BME280;38443;53.164;5.802;2023-01-19T08:06:30;100295.81;;;1.51;100.00
52535;BME280;38443;53.164;5.802;2023-01-19T08:08:56;100299.34;;;1.46;100.00
52535;BME280;38443;53.164;5.802;2023-01-19T08:11:22;100303.75;;;1.39;100.00
52535;BME280;38443;53.164;5.802;2023-01-19T08:13:47;100307.25;;;1.38;100.00
52535;BME280;38443;53.164;5.802;2023-01-19T08:16:12;100307.28;;;1.35;100.00
52535;BME280;38443;53.164;5.802;2023-01-19T08:18:38;100318.69;;;1.34;100.00
52535;BME280;38443;53.164;5.802;2023-01-19T08:21:03;100318.69;;;1.28;100.00
52535;BME280;38443;53.164;5.802;2023-01-19T08:23:29;100330.13;;;1.25;100.00
52535;BME280;38443;53.164;5.802;2023-01-19T08:25:54;100327.47;;;1.25;100.00
52535;BME280;38443;53.164;5.802;2023-01-19T08:28:20;100330.97;;;1.24;100.00
52535;BME280;38443;53.164;5.802;2023-01-19T08:30:46;100338.91;;;1.23;100.00
52535;BME280;38443;53.164;5.802;2023-01-19T08:33:18;100344.16;;;1.19;100.00
52535;BME280;38443;53.164;5.802;2023-01-19T08:35:45;100345.94;;;1.14;100.00
52535;BME280;38443;53.164;5.802;2023-01-19T08:38:11;100348.56;;;1.16;100.00
52535;BME280;38443;53.164;5.802;2023-01-19T08:40:40;100349.44;;;1.15;100.00
52535;BME280;38443;53.164;5.802;2023-01-19T08:43:13;100359.97;;;1.12;100.00
52535;BME280;38443;53.164;5.802;2023-01-19T08:45:49;100363.50;;;1.12;100.00
52535;BME280;38443;53.164;5.802;2023-01-19T08:48:16;100359.09;;;1.10;100.00
52535;BME280;38443;53.164;5.802;2023-01-19T08:50:45;100366.09;;;1.06;100.00
52535;BME280;38443;53.164;5.802;2023-01-19T08:53:14;100368.75;;;1.06;100.00
52535;BME280;38443;53.164;5.802;2023-01-19T08:55:39;100374.03;;;1.03;100.00
52535;BME280;38443;53.164;5.802;2023-01-19T08:58:05;100379.31;;;1.05;100.00
52535;BME280;38443;53.164;5.802;2023-01-19T09:00:34;100375.78;;;1.06;100.00
52535;BME280;38443;53.164;5.802;2023-01-19T09:03:05;100378.44;;;1.10;100.00
52535;BME280;38443;53.164;5.802;2023-01-19T09:05:32;100379.31;;;1.11;100.00
52535;BME280;38443;53.164;5.802;2023-01-19T09:08:08;100385.44;;;1.16;100.00
52535;BME280;38443;53.164;5.802;2023-01-19T09:10:35;100387.25;;;1.25;100.00
52535;BME280;38443;53.164;5.802;2023-01-19T09:13:07;100389.91;;;1.38;100.00
52535;BME280;38443;53.164;5.802;2023-01-19T09:15:35;100386.38;;;1.55;100.00
52535;BME280;38443;53.164;5.802;2023-01-19T09:18:05;100387.25;;;1.74;100.00
52535;BME280;38443;53.164;5.802;2023-01-19T09:20:31;100393.38;;;1.88;100.00
52535;BME280;38443;53.164;5.802;2023-01-19T09:22:59;100389.84;;;1.94;100.00
52535;BME280;38443;53.164;5.802;2023-01-19T09:25:24;100401.28;;;1.96;100.00
52535;BME280;38443;53.164;5.802;2023-01-19T09:27:50;100387.22;;;2.00;100.00
52535;BME280;38443;53.164;5.802;2023-01-19T09:30:16;100396.03;;;2.01;100.00
52535;BME280;38443;53.164;5.802;2023-01-19T09:32:42;100398.66;;;2.07;100.00
52535;BME280;38443;53.164;5.802;2023-01-19T09:35:07;100404.78;;;2.10;100.00
52535;BME280;38443;53.164;5.802;2023-01-19T09:37:33;100405.66;;;2.15;100.00
52535;BME280;38443;53.164;5.802;2023-01-19T09:39:58;100402.13;;;2.19;100.00
52535;BME280;38443;53.164;5.802;2023-01-19T09:45:14;100406.50;;;2.28;100.00
52535;BME280;38443;53.164;5.802;2023-01-19T09:47:40;100407.38;;;2.32;100.00
52535;BME280;38443;53.164;5.802;2023-01-19T09:50:09;100401.22;;;2.33;100.00
52535;BME280;38443;53.164;5.802;2023-01-19T09:52:40;100402.06;;;2.38;100.00
52535;BME280;38443;53.164;5.802;2023-01-19T09:55:19;100408.25;;;2.43;100.00
52535;BME280;38443;53.164;5.802;2023-01-19T09:57:46;100407.31;;;2.50;100.00
52535;BME280;38443;53.164;5.802;2023-01-19T10:00:17;100410.88;;;2.51;100.00
52535;BME280;38443;53.164;5.802;2023-01-19T10:02:58;100415.22;;;2.59;100.00
52535;BME280;38443;53.164;5.802;2023-01-19T10:05:30;100421.34;;;2.66;100.00
52535;BME280;38443;53.164;5.802;2023-01-19T10:08:17;100418.69;;;2.72;100.00
52535;BME280;38443;53.164;5.802;2023-01-19T10:10:46;100411.59;;;2.80;100.00
52535;BME280;38443;53.164;5.802;2023-01-19T10:16:03;100423.00;;;2.92;100.00
52535;BME280;38443;53.164;5.802;2023-01-19T10:18:45;100423.88;;;2.95;100.00
52535;BME280;38443;53.164;5.802;2023-01-19T10:21:40;100430.91;;;2.98;100.00
52535;BME280;38443;53.164;5.802;2023-01-19T10:24:26;100431.78;;;2.98;100.00
52535;BME280;38443;53.164;5.802;2023-01-19T10:26:53;100433.53;;;2.96;100.00
52535;BME280;38443;53.164;5.802;2023-01-19T10:29:34;100439.75;;;2.92;100.00
52535;BME280;38443;53.164;5.802;2023-01-19T10:32:16;100432.69;;;2.94;100.00
52535;BME280;38443;53.164;5.802;2023-01-19T10:34:44;100438.84;;;2.98;100.00
52535;BME280;38443;53.164;5.802;2023-01-19T10:37:31;100431.81;;;2.95;100.00
52535;BME280;38443;53.164;5.802;2023-01-19T10:42:40;100430.00;;;3.04;100.00
52535;BME280;38443;53.164;5.802;2023-01-19T10:45:16;100425.59;;;3.03;100.00
52535;BME280;38443;53.164;5.802;2023-01-19T10:47:43;100427.31;;;3.10;100.00
52535;BME280;38443;53.164;5.802;2023-01-19T10:50:30;100422.03;;;3.10;100.00
52535;BME280;38443;53.164;5.802;2023-01-19T10:52:57;100429.97;;;3.11;100.00
52535;BME280;38443;53.164;5.802;2023-01-19T10:55:29;100431.69;;;3.17;100.00
52535;BME280;38443;53.164;5.802;2023-01-19T10:57:56;100429.91;;;3.20;100.00
52535;BME280;38443;53.164;5.802;2023-01-19T11:00:39;100435.22;;;3.17;100.00
52535;BME280;38443;53.164;5.802;2023-01-19T11:03:29;100442.28;;;3.17;100.00
52535;BME280;38443;53.164;5.802;2023-01-19T11:06:27;100438.72;;;3.16;100.00
52535;BME280;38443;53.164;5.802;2023-01-19T11:09:08;100436.94;;;3.22;100.00
52535;BME280;38443;53.164;5.802;2023-01-19T11:11:41;100432.50;;;3.31;100.00
52535;BME280;38443;53.164;5.802;2023-01-19T11:14:13;100443.84;;;3.46;100.00
52535;BME280;38443;53.164;5.802;2023-01-19T11:16:39;100442.03;;;3.57;100.00
52535;BME280;38443;53.164;5.802;2023-01-19T11:19:05;100443.81;;;3.49;100.00
52535;BME280;38443;53.164;5.802;2023-01-19T11:21:39;100435.00;;;3.47;100.00
52535;BME280;38443;53.164;5.802;2023-01-19T11:24:04;100431.53;;;3.43;100.00
52535;BME280;38443;53.164;5.802;2023-01-19T11:26:47;100439.44;;;3.48;100.00
52535;BME280;38443;53.164;5.802;2023-01-19T11:29:20;100442.94;;;3.51;100.00
52535;BME280;38443;53.164;5.802;2023-01-19T11:31:47;100435.84;;;3.56;100.00
52535;BME280;38443;53.164;5.802;2023-01-19T11:34:23;100443.78;;;3.58;100.00
52535;BME280;38443;53.164;5.802;2023-01-19T11:37:00;100441.06;;;3.64;100.00
52535;BME280;38443;53.164;5.802;2023-01-19T11:39:28;100442.84;;;3.64;100.00
52535;BME280;38443;53.164;5.802;2023-01-19T11:41:57;100437.56;;;3.65;100.00
52535;BME280;38443;53.164;5.802;2023-01-19T11:44:29;100448.13;;;3.65;100.00
52535;BME280;38443;53.164;5.802;2023-01-19T11:46:58;100442.91;;;3.59;100.00
52535;BME280;38443;53.164;5.802;2023-01-19T11:49:44;100455.31;;;3.51;100.00
52535;BME280;38443;53.164;5.802;2023-01-19T11:52:26;100456.22;;;3.45;100.00
52535;BME280;38443;53.164;5.802;2023-01-19T11:55:51;100450.97;;;3.36;100.00
52535;BME280;38443;53.164;5.802;2023-01-19T11:58:13;100450.09;;;3.32;100.00
52535;BME280;38443;53.164;5.802;2023-01-19T12:00:47;100459.84;;;3.29;100.00
52535;BME280;38443;53.164;5.802;2023-01-19T12:05:54;100463.41;;;3.18;100.00
52535;BME280;38443;53.164;5.802;2023-01-19T12:08:42;100459.06;;;3.13;100.00
52535;BME280;38443;53.164;5.802;2023-01-19T12:11:13;100464.34;;;3.11;100.00
52535;BME280;38443;53.164;5.802;2023-01-19T12:13:40;100464.38;;;3.07;100.00
52535;BME280;38443;53.164;5.802;2023-01-19T12:16:13;100469.66;;;3.04;100.00
52535;BME280;38443;53.164;5.802;2023-01-19T12:18:47;100467.00;;;3.00;100.00
52535;BME280;38443;53.164;5.802;2023-01-19T12:21:13;100474.97;;;2.99;100.00
52535;BME280;38443;53.164;5.802;2023-01-19T12:26:35;100481.13;;;2.96;100.00
52535;BME280;38443;53.164;5.802;2023-01-19T12:29:10;100481.16;;;2.95;100.00
52535;BME280;38443;53.164;5.802;2023-01-19T12:31:36;100488.19;;;2.96;100.00
52535;BME280;38443;53.164;5.802;2023-01-19T12:34:45;100492.59;;;2.92;100.00
52535;BME280;38443;53.164;5.802;2023-01-19T12:36:59;100484.66;;;2.98;100.00
52535;BME280;38443;53.164;5.802;2023-01-19T12:39:25;100494.34;;;3.01;100.00
52535;BME280;38443;53.164;5.802;2023-01-19T12:44:34;100487.28;;;3.03;100.00
52535;BME280;38443;53.164;5.802;2023-01-19T12:47:15;100482.88;;;3.02;100.00
52535;BME280;38443;53.164;5.802;2023-01-19T12:49:50;100486.41;;;3.04;100.00
52535;BME280;38443;53.164;5.802;2023-01-19T12:52:29;100486.41;;;3.04;100.00
52535;BME280;38443;53.164;5.802;2023-01-19T12:55:01;100480.25;;;3.07;100.00
52535;BME280;38443;53.164;5.802;2023-01-19T12:57:31;100491.69;;;3.09;100.00
52535;BME280;38443;53.164;5.802;2023-01-19T13:00:02;100482.84;;;3.13;100.00
52535;BME280;38443;53.164;5.802;2023-01-19T13:02:40;100481.97;;;3.11;100.00
52535;BME280;38443;53.164;5.802;2023-01-19T13:05:23;100481.91;;;3.22;100.00
52535;BME280;38443;53.164;5.802;2023-01-19T13:11:11;100473.59;;;3.83;100.00
52535;BME280;38443;53.164;5.802;2023-01-19T13:19:16;100477.94;;;3.92;100.00
52535;BME280;38443;53.164;5.802;2023-01-19T13:21:45;100483.31;;;3.79;100.00
52535;BME280;38443;53.164;5.802;2023-01-19T13:24:14;100485.19;;;3.60;100.00
52535;BME280;38443;53.164;5.802;2023-01-19T13:29:27;100481.00;;;3.29;100.00
52535;BME280;38443;53.164;5.802;2023-01-19T13:31:59;100488.06;;;3.24;100.00
52535;BME280;38443;53.164;5.802;2023-01-19T13:34:50;100488.09;;;3.17;100.00
52535;BME280;38443;53.164;5.802;2023-01-19T13:37:21;100484.59;;;3.14;100.00
52535;BME280;38443;53.164;5.802;2023-01-19T13:39:49;100485.50;;;3.13;100.00
52535;BME280;38443;53.164;5.802;2023-01-19T13:42:17;100492.56;;;3.09;100.00
52535;BME280;38443;53.164;5.802;2023-01-19T13:44:47;100495.19;;;3.05;100.00
52535;BME280;38443;53.164;5.802;2023-01-19T13:47:28;100500.50;;;3.00;100.00
52535;BME280;38443;53.164;5.802;2023-01-19T13:49:59;100511.09;;;3.02;100.00
52535;BME280;38443;53.164;5.802;2023-01-19T13:52:27;100499.63;;;2.96;100.00